createdAt,value
2023-02-07T00:00:15.157Z,18.20
2023-02-07T00:01:15.341Z,18.70
2023-02-07T00:02:15.495Z,18.50
2023-02-07T00:03:15.724Z,17.80
2023-02-07T00:04:15.874Z,18.50
2023-02-07T00:05:16.007Z,18.20
2023-02-07T00:06:16.175Z,19.70
2023-02-07T00:07:16.344Z,19.40
2023-02-07T00:08:16.504Z,19.50
2023-02-07T00:09:16.689Z,18.20
2023-02-07T00:10:16.862Z,19.00
2023-02-07T00:11:17.075Z,19.40
2023-02-07T00:12:17.199Z,18.40
2023-02-07T00:13:17.381Z,19.20
2023-02-07T00:14:17.616Z,19.60
2023-02-07T00:15:17.719Z,19.10
2023-02-07T00:16:17.944Z,19.70
2023-02-07T00:17:18.068Z,18.30
2023-02-07T00:18:18.240Z,19.00
2023-02-07T00:19:18.435Z,18.80
2023-02-07T00:20:18.590Z,18.00
2023-02-07T00:21:18.761Z,18.30
2023-02-07T00:22:18.932Z,18.50
2023-02-07T00:23:19.087Z,18.50
2023-02-07T00:24:19.266Z,19.80
2023-02-07T00:25:19.426Z,19.20
2023-02-07T00:26:19.604Z,18.60
2023-02-07T00:27:19.791Z,19.10
2023-02-07T00:28:20.111Z,19.20
2023-02-07T00:29:20.161Z,19.70
2023-02-07T00:30:20.345Z,19.60
2023-02-07T00:31:20.609Z,19.70
2023-02-07T00:32:20.664Z,19.80
2023-02-07T00:33:20.834Z,19.30
2023-02-07T00:34:21.023Z,19.80
2023-02-07T00:35:21.181Z,19.10
2023-02-07T00:36:21.393Z,20.00
2023-02-07T00:37:21.528Z,20.00
2023-02-07T00:38:21.704Z,18.90
2023-02-07T00:39:21.924Z,20.00
2023-02-07T00:40:22.043Z,19.40
2023-02-07T00:41:22.211Z,18.80
2023-02-07T00:42:22.404Z,19.70
2023-02-07T00:43:29.669Z,20.40
2023-02-07T00:44:23.749Z,19.90
2023-02-07T00:45:22.919Z,18.40
2023-02-07T00:46:23.192Z,19.00
2023-02-07T00:47:23.237Z,19.50
2023-02-07T00:48:23.448Z,19.80
2023-02-07T00:49:23.585Z,19.30
2023-02-07T00:50:23.741Z,18.30
2023-02-07T00:51:23.903Z,19.40
2023-02-07T00:52:24.120Z,19.80
2023-02-07T00:53:24.242Z,19.40
2023-02-07T00:54:24.420Z,19.30
2023-02-07T00:55:24.613Z,18.30
2023-02-07T00:56:24.763Z,18.90
2023-02-07T00:57:24.932Z,18.30
2023-02-07T00:58:25.093Z,19.20
2023-02-07T00:59:25.264Z,18.50
2023-02-07T01:00:25.439Z,18.50
2023-02-07T01:01:25.659Z,18.50
2023-02-07T01:02:25.765Z,18.20
2023-02-07T01:03:25.925Z,18.10
2023-02-07T01:04:26.119Z,18.70
2023-02-07T01:05:26.288Z,17.50
2023-02-07T01:06:26.430Z,17.60
2023-02-07T01:07:26.588Z,17.10
2023-02-07T01:08:26.766Z,18.60
2023-02-07T01:09:26.928Z,18.70
2023-02-07T01:10:27.120Z,18.60
2023-02-07T01:11:27.292Z,19.20
2023-02-07T01:12:27.453Z,17.50
2023-02-07T01:13:27.618Z,18.30
2023-02-07T01:14:27.804Z,18.50
2023-02-07T01:15:28.050Z,18.10
2023-02-07T01:16:28.169Z,18.20
2023-02-07T01:17:28.362Z,18.00
2023-02-07T01:18:28.518Z,19.00
2023-02-07T01:19:28.673Z,18.20
2023-02-07T01:20:28.854Z,18.30
2023-02-07T01:21:29.040Z,17.90
2023-02-07T01:22:29.197Z,18.30
2023-02-07T01:23:29.365Z,17.50
2023-02-07T01:24:29.571Z,17.20
2023-02-07T01:25:29.727Z,17.40
2023-02-07T01:26:29.945Z,17.90
2023-02-07T01:27:30.070Z,17.80
2023-02-07T01:28:30.233Z,17.70
2023-02-07T01:29:30.404Z,18.30
2023-02-07T01:30:30.622Z,18.00
2023-02-07T01:31:30.802Z,16.90
2023-02-07T01:32:30.921Z,17.90
2023-02-07T01:33:31.097Z,17.00
2023-02-07T01:34:31.301Z,17.60
2023-02-07T01:35:31.452Z,17.80
2023-02-07T01:36:31.633Z,17.90
2023-02-07T01:37:31.771Z,17.50
2023-02-07T01:38:31.957Z,17.70
2023-02-07T01:39:32.125Z,17.90
2023-02-07T01:40:32.294Z,17.10
2023-02-07T01:41:32.491Z,17.20
2023-02-07T01:42:32.638Z,17.90
2023-02-07T01:43:32.795Z,18.30
2023-02-07T01:44:32.968Z,17.20
2023-02-07T01:45:33.123Z,18.60
2023-02-07T01:46:33.338Z,18.00
2023-02-07T01:47:33.465Z,18.30
2023-02-07T01:48:33.652Z,18.10
2023-02-07T01:49:33.809Z,18.10
2023-02-07T01:50:33.969Z,18.30
2023-02-07T01:51:34.134Z,18.00
2023-02-07T01:52:34.340Z,18.70
2023-02-07T01:53:34.490Z,19.00
2023-02-07T01:54:34.649Z,18.40
2023-02-07T01:55:34.802Z,19.50
2023-02-07T01:56:34.986Z,18.60
2023-02-07T01:57:35.191Z,18.50
2023-02-07T01:58:35.317Z,17.60
2023-02-07T01:59:35.551Z,18.50
2023-02-07T02:00:35.665Z,20.00
2023-02-07T02:01:35.862Z,19.00
2023-02-07T02:02:36.056Z,18.70
2023-02-07T02:03:36.149Z,19.70
2023-02-07T02:04:36.320Z,19.80
2023-02-07T02:05:36.843Z,19.20
2023-02-07T02:06:36.656Z,19.60
2023-02-07T02:07:36.823Z,19.20
2023-02-07T02:08:36.988Z,19.70
2023-02-07T02:09:37.152Z,19.20
2023-02-07T02:10:37.337Z,21.00
2023-02-07T02:11:37.495Z,20.60
2023-02-07T02:12:37.706Z,20.10
2023-02-07T02:13:37.834Z,20.20
2023-02-07T02:14:38.040Z,19.50
2023-02-07T02:15:38.606Z,20.20
2023-02-07T02:16:38.393Z,19.50
2023-02-07T02:17:38.555Z,19.30
2023-02-07T02:18:38.718Z,20.00
2023-02-07T02:19:38.876Z,19.70
2023-02-07T02:20:39.058Z,18.60
2023-02-07T02:21:39.207Z,19.30
2023-02-07T02:22:39.406Z,18.60
2023-02-07T02:23:39.569Z,19.40
2023-02-07T02:24:39.763Z,19.20
2023-02-07T02:25:40.090Z,19.10
2023-02-07T02:26:40.079Z,19.30
2023-02-07T02:27:40.242Z,19.00
2023-02-07T02:28:40.409Z,19.40
2023-02-07T02:29:40.607Z,19.20
2023-02-07T02:30:40.769Z,19.90
2023-02-07T02:31:41.034Z,19.70
2023-02-07T02:32:41.085Z,19.60
2023-02-07T02:33:41.245Z,20.20
2023-02-07T02:34:41.462Z,21.00
2023-02-07T02:35:41.599Z,19.00
2023-02-07T02:36:41.806Z,19.30
2023-02-07T02:37:41.941Z,20.10
2023-02-07T02:38:42.130Z,19.50
2023-02-07T02:39:42.330Z,19.60
2023-02-07T02:40:42.454Z,20.20
2023-02-07T02:41:42.612Z,19.40
2023-02-07T02:42:42.822Z,20.00
2023-02-07T02:43:42.963Z,20.90
2023-02-07T02:44:43.161Z,19.90
2023-02-07T02:45:43.324Z,20.40
2023-02-07T02:46:43.536Z,20.10
2023-02-07T02:47:43.651Z,21.00
2023-02-07T02:48:43.869Z,21.30
2023-02-07T02:49:44.027Z,19.60
2023-02-07T02:50:44.208Z,20.50
2023-02-07T02:51:44.363Z,19.90
2023-02-07T02:52:50.675Z,20.00
2023-02-07T02:53:45.704Z,19.50
2023-02-07T02:54:44.863Z,19.80
2023-02-07T02:55:45.035Z,20.20
2023-02-07T02:56:45.220Z,19.90
2023-02-07T02:57:45.388Z,20.00
2023-02-07T02:58:45.551Z,19.50
2023-02-07T02:59:45.729Z,20.00
2023-02-07T03:00:45.919Z,20.00
2023-02-07T03:01:46.101Z,20.30
2023-02-07T03:02:46.250Z,19.70
2023-02-07T03:03:46.431Z,19.90
2023-02-07T03:04:46.593Z,21.10
2023-02-07T03:05:46.752Z,19.30
2023-02-07T03:06:46.936Z,19.70
2023-02-07T03:07:47.118Z,20.40
2023-02-07T03:08:47.290Z,20.70
2023-02-07T03:09:47.457Z,20.60
2023-02-07T03:10:47.619Z,21.90
2023-02-07T03:11:47.789Z,20.40
2023-02-07T03:12:48.001Z,20.50
2023-02-07T03:13:48.138Z,20.30
2023-02-07T03:14:48.323Z,20.80
2023-02-07T03:15:48.506Z,20.40
2023-02-07T03:16:48.652Z,20.40
2023-02-07T03:17:48.823Z,20.60
2023-02-07T03:18:48.995Z,20.60
2023-02-07T03:19:49.183Z,20.20
2023-02-07T03:20:49.308Z,20.40
2023-02-07T03:21:49.474Z,20.70
2023-02-07T03:22:49.642Z,20.30
2023-02-07T03:23:49.798Z,20.80
2023-02-07T03:24:50.012Z,19.80
2023-02-07T03:25:50.140Z,19.90
2023-02-07T03:26:50.307Z,20.20
2023-02-07T03:27:50.490Z,19.80
2023-02-07T03:28:50.651Z,19.60
2023-02-07T03:29:50.867Z,20.80
2023-02-07T03:30:51.012Z,19.90
2023-02-07T03:31:51.146Z,20.70
2023-02-07T03:32:51.316Z,20.20
2023-02-07T03:33:51.496Z,20.70
2023-02-07T03:34:51.688Z,21.20
2023-02-07T03:35:51.829Z,19.30
2023-02-07T03:36:52.007Z,20.00
2023-02-07T03:37:52.173Z,19.60
2023-02-07T03:38:52.336Z,20.90
2023-02-07T03:39:52.518Z,20.10
2023-02-07T03:40:52.687Z,19.70
2023-02-07T03:41:52.845Z,20.20
2023-02-07T03:42:53.018Z,21.30
2023-02-07T03:43:53.171Z,20.70
2023-02-07T03:44:53.367Z,19.70
2023-02-07T03:45:53.527Z,19.80
2023-02-07T03:46:53.730Z,20.10
2023-02-07T03:47:53.886Z,20.10
2023-02-07T03:48:54.070Z,19.50
2023-02-07T03:49:54.262Z,19.80
2023-02-07T03:50:54.396Z,20.90
2023-02-07T03:51:54.552Z,19.30
2023-02-07T03:52:54.720Z,19.90
2023-02-07T03:53:54.900Z,19.80
2023-02-07T03:54:55.071Z,19.60
2023-02-07T03:55:55.244Z,18.90
2023-02-07T03:56:55.397Z,20.30
2023-02-07T03:57:55.586Z,18.40
2023-02-07T03:58:55.758Z,18.50
2023-02-07T03:59:55.940Z,19.10
2023-02-07T04:00:56.114Z,20.00
2023-02-07T04:01:56.276Z,18.40
2023-02-07T04:02:56.427Z,18.40
2023-02-07T04:03:56.594Z,18.80
2023-02-07T04:04:56.793Z,18.20
2023-02-07T04:05:56.927Z,19.00
2023-02-07T04:06:57.110Z,18.70
2023-02-07T04:07:57.277Z,18.20
2023-02-07T04:08:57.436Z,18.40
2023-02-07T04:09:57.685Z,18.30
2023-02-07T04:10:57.800Z,17.80
2023-02-07T04:11:57.954Z,17.30
2023-02-07T04:12:58.129Z,17.00
2023-02-07T04:13:58.277Z,17.10
2023-02-07T04:14:58.477Z,17.00
2023-02-07T04:15:58.635Z,17.30
2023-02-07T04:16:58.780Z,17.00
2023-02-07T04:17:58.947Z,17.10
2023-02-07T04:18:59.138Z,16.90
2023-02-07T04:19:59.290Z,17.10
2023-02-07T04:20:59.457Z,17.30
2023-02-07T04:21:59.629Z,16.60
2023-02-07T04:22:59.799Z,16.80
2023-02-07T04:23:59.980Z,17.10
2023-02-07T04:25:00.185Z,18.00
2023-02-07T04:26:00.357Z,16.70
2023-02-07T04:27:00.524Z,17.00
2023-02-07T04:28:00.723Z,16.80
2023-02-07T04:29:00.866Z,16.30
2023-02-07T04:30:01.033Z,17.70
2023-02-07T04:31:01.210Z,16.70
2023-02-07T04:32:01.467Z,16.90
2023-02-07T04:33:01.547Z,16.80
2023-02-07T04:34:01.719Z,15.90
2023-02-07T04:35:01.894Z,17.00
2023-02-07T04:36:02.074Z,16.80
2023-02-07T04:37:02.228Z,17.30
2023-02-07T04:38:02.380Z,15.90
2023-02-07T04:39:02.536Z,16.20
2023-02-07T04:40:02.709Z,17.00
2023-02-07T04:41:02.884Z,16.20
2023-02-07T04:42:03.044Z,17.10
2023-02-07T04:43:03.217Z,16.40
2023-02-07T04:44:03.377Z,16.60
2023-02-07T04:45:03.545Z,15.70
2023-02-07T04:46:03.880Z,16.50
2023-02-07T04:47:03.906Z,15.80
2023-02-07T04:48:04.075Z,15.60
2023-02-07T04:49:04.241Z,15.40
2023-02-07T04:50:04.412Z,15.90
2023-02-07T04:51:04.611Z,16.00
2023-02-07T04:52:04.735Z,14.50
2023-02-07T04:53:04.915Z,14.60
2023-02-07T04:54:05.098Z,15.80
2023-02-07T04:55:05.251Z,15.30
2023-02-07T04:56:05.466Z,14.80
2023-02-07T04:57:05.631Z,15.20
2023-02-07T04:58:05.774Z,15.20
2023-02-07T04:59:05.981Z,14.60
2023-02-07T05:00:06.124Z,13.80
2023-02-07T05:01:06.335Z,14.90
2023-02-07T05:02:06.460Z,14.50
2023-02-07T05:03:06.665Z,14.60
2023-02-07T05:04:06.835Z,14.40
2023-02-07T05:05:06.977Z,15.50
2023-02-07T05:06:07.161Z,14.50
2023-02-07T05:07:07.339Z,15.60
2023-02-07T05:08:07.504Z,14.60
2023-02-07T05:09:07.663Z,14.80
2023-02-07T05:10:07.847Z,15.10
2023-02-07T05:11:08.014Z,14.70
2023-02-07T05:12:08.194Z,14.60
2023-02-07T05:13:08.356Z,15.00
2023-02-07T05:14:08.526Z,15.00
2023-02-07T05:15:08.693Z,14.80
2023-02-07T05:16:08.889Z,14.60
2023-02-07T05:17:09.049Z,15.00
2023-02-07T05:18:09.219Z,15.00
2023-02-07T05:19:09.366Z,14.40
2023-02-07T05:20:09.541Z,14.10
2023-02-07T05:21:09.716Z,15.00
2023-02-07T05:22:09.884Z,15.00
2023-02-07T05:23:10.056Z,14.60
2023-02-07T05:24:10.216Z,15.00
2023-02-07T05:25:10.377Z,15.20
2023-02-07T05:26:10.550Z,15.30
2023-02-07T05:27:10.728Z,15.10
2023-02-07T05:28:10.948Z,16.00
2023-02-07T05:29:11.071Z,15.40
2023-02-07T05:30:11.237Z,15.20
2023-02-07T05:31:11.467Z,15.80
2023-02-07T05:32:11.591Z,16.80
2023-02-07T05:33:11.716Z,15.90
2023-02-07T05:34:11.889Z,15.40
2023-02-07T05:35:12.064Z,15.50
2023-02-07T05:36:12.220Z,15.80
2023-02-07T05:37:12.390Z,16.40
2023-02-07T05:38:12.598Z,16.20
2023-02-07T05:39:12.753Z,15.90
2023-02-07T05:40:12.945Z,16.60
2023-02-07T05:41:13.070Z,15.90
2023-02-07T05:42:13.249Z,16.30
2023-02-07T05:43:13.447Z,15.40
2023-02-07T05:44:13.639Z,15.40
2023-02-07T05:45:13.775Z,15.70
2023-02-07T05:46:13.974Z,16.20
2023-02-07T05:47:14.142Z,16.60
2023-02-07T05:48:14.278Z,15.70
2023-02-07T05:49:14.458Z,16.20
2023-02-07T05:50:14.627Z,16.10
2023-02-07T05:51:14.796Z,16.20
2023-02-07T05:52:15.024Z,15.40
2023-02-07T05:53:15.164Z,15.70
2023-02-07T05:54:15.345Z,15.90
2023-02-07T05:55:15.512Z,16.10
2023-02-07T05:56:15.692Z,14.70
2023-02-07T05:57:15.891Z,14.90
2023-02-07T05:58:16.029Z,16.00
2023-02-07T05:59:16.193Z,15.80
2023-02-07T06:00:16.372Z,16.00
2023-02-07T06:01:16.554Z,15.90
2023-02-07T06:02:16.768Z,16.40
2023-02-07T06:03:16.904Z,16.40
2023-02-07T06:04:17.086Z,15.70
2023-02-07T06:05:17.273Z,16.10
2023-02-07T06:06:17.430Z,16.40
2023-02-07T06:07:17.622Z,16.10
2023-02-07T06:08:17.778Z,15.90
2023-02-07T06:09:17.962Z,16.50
2023-02-07T06:10:18.123Z,16.70
2023-02-07T06:11:18.290Z,17.20
2023-02-07T06:12:18.522Z,15.90
2023-02-07T06:13:18.649Z,15.20
2023-02-07T06:14:18.818Z,15.70
2023-02-07T06:15:18.988Z,16.90
2023-02-07T06:16:19.176Z,16.90
2023-02-07T06:17:19.360Z,15.70
2023-02-07T06:18:19.504Z,16.90
2023-02-07T06:19:19.676Z,16.20
2023-02-07T06:20:19.862Z,16.50
2023-02-07T06:21:20.059Z,15.20
2023-02-07T06:22:20.194Z,16.10
2023-02-07T06:23:20.360Z,16.00
2023-02-07T06:24:20.544Z,16.10
2023-02-07T06:25:21.503Z,15.90
2023-02-07T06:26:20.909Z,15.80
2023-02-07T06:27:21.090Z,15.80
2023-02-07T06:28:21.338Z,15.80
2023-02-07T06:29:21.433Z,16.00
2023-02-07T06:30:21.616Z,15.80
2023-02-07T06:31:21.858Z,16.40
2023-02-07T06:32:21.952Z,16.70
2023-02-07T06:33:22.144Z,16.50
2023-02-07T06:34:22.322Z,17.20
2023-02-07T06:35:22.512Z,17.30
2023-02-07T06:36:22.756Z,16.30
2023-02-07T06:37:22.856Z,17.00
2023-02-07T06:38:23.042Z,16.90
2023-02-07T06:39:23.199Z,17.40
2023-02-07T06:40:23.412Z,17.80
2023-02-07T06:41:23.567Z,17.30
2023-02-07T06:42:23.726Z,17.90
2023-02-07T06:43:23.883Z,18.60
2023-02-07T06:44:24.064Z,17.30
2023-02-07T06:45:24.267Z,18.20
2023-02-07T06:46:24.464Z,18.40
2023-02-07T06:47:24.601Z,18.10
2023-02-07T06:48:24.796Z,17.60
2023-02-07T06:49:24.990Z,18.50
2023-02-07T06:50:25.194Z,17.70
2023-02-07T06:51:25.316Z,18.30
2023-02-07T06:52:25.490Z,17.80
2023-02-07T06:53:25.685Z,18.20
2023-02-07T06:54:25.847Z,19.10
2023-02-07T06:55:26.037Z,18.40
2023-02-07T06:56:26.191Z,18.90
2023-02-07T06:57:26.344Z,17.90
2023-02-07T06:58:26.538Z,19.20
2023-02-07T06:59:26.721Z,19.00
2023-02-07T07:00:26.911Z,18.90
2023-02-07T07:01:27.028Z,18.30
2023-02-07T07:02:27.218Z,18.90
2023-02-07T07:03:27.402Z,18.20
2023-02-07T07:04:27.662Z,19.30
2023-02-07T07:05:27.789Z,19.30
2023-02-07T07:06:27.965Z,18.80
2023-02-07T07:07:28.104Z,19.60
2023-02-07T07:08:28.275Z,19.40
2023-02-07T07:09:28.452Z,19.10
2023-02-07T07:10:28.696Z,18.80
2023-02-07T07:11:28.782Z,19.20
2023-02-07T07:12:28.966Z,18.70
2023-02-07T07:13:29.154Z,14.50
2023-02-07T07:14:29.302Z,14.70
2023-02-07T07:15:29.457Z,16.80
2023-02-07T07:16:29.668Z,15.20
2023-02-07T07:17:29.826Z,16.90
2023-02-07T07:18:29.993Z,14.90
2023-02-07T07:19:30.166Z,15.20
2023-02-07T07:20:30.315Z,16.00
2023-02-07T07:21:30.476Z,16.00
2023-02-07T07:22:30.663Z,15.60
2023-02-07T07:23:30.854Z,16.10
2023-02-07T07:24:30.984Z,17.10
2023-02-07T07:25:31.132Z,17.00
2023-02-07T07:26:43.056Z,16.50
2023-02-07T07:27:32.504Z,17.00
2023-02-07T07:28:31.678Z,18.10
2023-02-07T07:29:31.820Z,17.10
2023-02-07T07:30:32.023Z,18.30
2023-02-07T07:31:32.275Z,17.40
2023-02-07T07:32:34.491Z,17.70
2023-02-07T07:33:32.531Z,16.90
2023-02-07T07:34:32.667Z,18.20
2023-02-07T07:35:32.858Z,17.20
2023-02-07T07:36:33.026Z,18.30
2023-02-07T07:37:33.210Z,19.00
2023-02-07T07:38:33.386Z,19.30
2023-02-07T07:39:33.518Z,17.80
2023-02-07T07:40:33.704Z,18.70
2023-02-07T07:41:33.853Z,17.70
2023-02-07T07:42:34.060Z,18.40
2023-02-07T07:43:34.204Z,19.80
2023-02-07T07:44:35.720Z,19.30
2023-02-07T07:45:34.534Z,18.40
2023-02-07T07:46:34.727Z,20.00
2023-02-07T07:47:34.881Z,20.60
2023-02-07T07:48:35.123Z,18.70
2023-02-07T07:49:35.218Z,19.00
2023-02-07T07:50:35.387Z,20.10
2023-02-07T07:51:35.542Z,19.70
2023-02-07T07:52:35.712Z,19.60
2023-02-07T07:53:35.891Z,19.70
2023-02-07T07:54:36.042Z,20.40
2023-02-07T07:55:36.223Z,19.80
2023-02-07T07:56:36.412Z,20.60
2023-02-07T07:57:36.591Z,19.50
2023-02-07T07:58:36.797Z,20.00
2023-02-07T07:59:36.950Z,20.80
2023-02-07T08:00:37.485Z,20.50
2023-02-07T08:01:37.304Z,20.00
2023-02-07T08:02:37.484Z,20.60
2023-02-07T08:03:37.733Z,20.20
2023-02-07T08:04:37.861Z,20.80
2023-02-07T08:05:37.992Z,19.60
2023-02-07T08:06:38.172Z,19.40
2023-02-07T08:07:38.377Z,19.60
2023-02-07T08:08:38.574Z,20.90
2023-02-07T08:09:38.702Z,20.50
2023-02-07T08:10:39.206Z,20.60
2023-02-07T08:11:39.033Z,20.40
2023-02-07T08:12:39.221Z,20.20
2023-02-07T08:13:39.427Z,20.10
2023-02-07T08:14:39.563Z,19.80
2023-02-07T08:15:39.743Z,19.50
2023-02-07T08:16:39.931Z,19.30
2023-02-07T08:17:40.128Z,19.50
2023-02-07T08:18:40.329Z,18.90
2023-02-07T08:19:40.486Z,19.40
2023-02-07T08:20:41.073Z,20.10
2023-02-07T08:21:40.836Z,20.20
2023-02-07T08:22:41.008Z,20.00
2023-02-07T08:23:41.205Z,17.90
2023-02-07T08:24:41.383Z,18.40
2023-02-07T08:25:41.524Z,19.20
2023-02-07T08:26:41.707Z,19.10
2023-02-07T08:27:41.896Z,18.80
2023-02-07T08:28:42.082Z,18.40
2023-02-07T08:29:42.286Z,19.10
2023-02-07T08:30:42.548Z,19.10
2023-02-07T08:31:42.660Z,19.00
2023-02-07T08:32:42.771Z,18.00
2023-02-07T08:33:42.938Z,19.00
2023-02-07T08:34:43.143Z,18.00
2023-02-07T08:35:43.314Z,18.50
2023-02-07T08:36:43.461Z,17.40
2023-02-07T08:37:43.649Z,18.60
2023-02-07T08:38:43.837Z,17.40
2023-02-07T08:39:44.036Z,18.00
2023-02-07T08:40:44.210Z,17.80
2023-02-07T08:41:44.348Z,17.10
2023-02-07T08:42:44.604Z,16.10
2023-02-07T08:43:44.714Z,14.00
2023-02-07T08:44:44.870Z,15.00
2023-02-07T08:45:45.094Z,15.90
2023-02-07T08:46:45.201Z,15.20
2023-02-07T08:47:45.386Z,15.20
2023-02-07T08:48:45.570Z,16.40
2023-02-07T08:49:45.753Z,15.70
2023-02-07T08:50:45.953Z,16.50
2023-02-07T08:51:46.102Z,15.30
2023-02-07T08:52:46.278Z,16.10
2023-02-07T08:53:46.499Z,15.90
2023-02-07T08:54:46.632Z,16.10
2023-02-07T08:55:46.840Z,16.40
2023-02-07T08:56:46.991Z,15.40
2023-02-07T08:57:47.164Z,17.10
2023-02-07T08:58:47.335Z,15.80
2023-02-07T08:59:47.507Z,15.80
2023-02-07T09:00:47.730Z,16.70
2023-02-07T09:01:47.863Z,16.40
2023-02-07T09:02:48.027Z,16.20
2023-02-07T09:03:48.221Z,16.00
2023-02-07T09:04:48.393Z,16.40
2023-02-07T09:05:48.569Z,16.10
2023-02-07T09:06:48.750Z,16.20
2023-02-07T09:07:48.905Z,16.60
2023-02-07T09:08:49.066Z,16.10
2023-02-07T09:09:49.270Z,15.90
2023-02-07T09:10:49.452Z,14.90
2023-02-07T09:11:49.586Z,16.20
2023-02-07T09:12:49.736Z,16.00
2023-02-07T09:13:49.921Z,15.80
2023-02-07T09:14:50.077Z,17.10
2023-02-07T09:15:50.228Z,15.70
2023-02-07T09:16:50.436Z,15.90
2023-02-07T09:17:50.595Z,15.80
2023-02-07T09:18:51.208Z,15.90
2023-02-07T09:19:50.947Z,16.20
2023-02-07T09:20:51.080Z,15.90
2023-02-07T09:21:51.262Z,16.10
2023-02-07T09:22:51.450Z,15.60
2023-02-07T09:23:51.602Z,15.90
2023-02-07T09:24:51.752Z,15.80
2023-02-07T09:25:51.932Z,15.70
2023-02-07T09:26:52.077Z,15.50
2023-02-07T09:27:52.305Z,16.40
2023-02-07T09:28:52.430Z,15.80
2023-02-07T09:29:52.615Z,15.50
2023-02-07T09:30:53.253Z,15.90
2023-02-07T09:31:53.016Z,15.80
2023-02-07T09:32:53.124Z,15.30
2023-02-07T09:33:53.299Z,15.10
2023-02-07T09:34:53.451Z,16.00
2023-02-07T09:35:53.648Z,15.50
2023-02-07T09:36:53.801Z,16.20
2023-02-07T09:37:53.997Z,15.30
2023-02-07T09:38:54.170Z,15.10
2023-02-07T09:39:54.367Z,14.40
2023-02-07T09:40:54.545Z,10.70
2023-02-07T09:41:54.692Z,11.90
2023-02-07T09:42:54.894Z,12.40
2023-02-07T09:43:55.221Z,13.90
2023-02-07T09:44:55.417Z,13.50
2023-02-07T09:45:55.441Z,14.30
2023-02-07T09:46:55.574Z,13.20
2023-02-07T09:47:55.743Z,15.40
2023-02-07T09:48:55.911Z,15.50
2023-02-07T09:49:56.095Z,16.40
2023-02-07T09:50:56.245Z,15.90
2023-02-07T09:51:56.423Z,16.00
2023-02-07T09:52:56.622Z,16.00
2023-02-07T09:53:56.793Z,13.60
2023-02-07T09:54:56.969Z,13.00
2023-02-07T09:55:57.144Z,15.40
2023-02-07T09:56:57.274Z,15.60
2023-02-07T09:57:57.499Z,15.60
2023-02-07T09:58:57.634Z,16.60
2023-02-07T09:59:57.875Z,15.60
2023-02-07T10:00:58.037Z,15.50
2023-02-07T10:01:58.181Z,15.80
2023-02-07T10:02:58.393Z,15.80
2023-02-07T10:03:58.530Z,15.30
2023-02-07T10:04:58.732Z,15.80
2023-02-07T10:06:03.613Z,15.90
2023-02-07T10:07:00.045Z,15.70
2023-02-07T10:07:59.228Z,16.10
2023-02-07T10:08:59.403Z,15.30
2023-02-07T10:09:59.568Z,16.60
2023-02-07T10:10:59.712Z,15.80
2023-02-07T10:11:59.923Z,15.70
2023-02-07T10:13:00.109Z,16.10
2023-02-07T10:14:00.312Z,15.40
2023-02-07T10:15:00.481Z,14.50
2023-02-07T10:16:00.695Z,15.80
2023-02-07T10:17:00.783Z,15.00
2023-02-07T10:18:00.993Z,14.90
2023-02-07T10:19:01.161Z,14.40
2023-02-07T10:20:01.358Z,14.80
2023-02-07T10:21:03.978Z,15.30
2023-02-07T10:22:01.642Z,16.00
2023-02-07T10:23:01.814Z,15.40
2023-02-07T10:24:02.028Z,16.30
2023-02-07T10:25:02.169Z,15.70
2023-02-07T10:26:02.325Z,15.80
2023-02-07T10:27:02.501Z,15.90
2023-02-07T10:28:02.667Z,15.60
2023-02-07T10:29:02.825Z,15.80
2023-02-07T10:30:02.975Z,16.10
2023-02-07T10:31:03.212Z,15.90
2023-02-07T10:32:03.365Z,15.60
2023-02-07T10:33:03.524Z,16.10
2023-02-07T10:34:03.668Z,15.10
2023-02-07T10:35:03.864Z,15.70
2023-02-07T10:36:04.058Z,15.30
2023-02-07T10:37:04.180Z,15.20
2023-02-07T10:38:04.403Z,15.10
2023-02-07T10:39:09.464Z,14.70
2023-02-07T10:40:05.733Z,15.30
2023-02-07T10:41:04.899Z,15.10
2023-02-07T10:42:05.063Z,14.40
2023-02-07T10:43:05.344Z,14.60
2023-02-07T10:44:05.422Z,14.90
2023-02-07T10:45:05.569Z,15.00
2023-02-07T10:46:06.570Z,14.90
2023-02-07T10:47:05.935Z,14.20
2023-02-07T10:48:06.084Z,14.10
2023-02-07T10:49:06.286Z,12.90
2023-02-07T10:50:06.450Z,12.70
2023-02-07T10:51:06.597Z,13.70
2023-02-07T10:52:06.797Z,14.40
2023-02-07T10:53:06.937Z,14.60
2023-02-07T10:54:07.146Z,13.90
2023-02-07T10:55:07.316Z,15.20
2023-02-07T10:56:07.516Z,14.70
2023-02-07T10:57:07.664Z,14.70
2023-02-07T10:58:21.113Z,14.90
2023-02-07T10:59:08.989Z,15.80
2023-02-07T11:00:08.167Z,15.60
2023-02-07T11:01:08.377Z,15.30
2023-02-07T11:02:09.998Z,15.20
2023-02-07T11:03:08.739Z,15.40
2023-02-07T11:04:08.890Z,15.40
2023-02-07T11:05:09.050Z,13.10
2023-02-07T11:06:09.212Z,11.40
2023-02-07T11:07:09.391Z,11.50
2023-02-07T11:08:10.229Z,11.80
2023-02-07T11:09:09.825Z,13.00
2023-02-07T11:10:09.962Z,13.70
2023-02-07T11:11:10.118Z,13.00
2023-02-07T11:12:10.273Z,12.80
2023-02-07T11:13:10.432Z,12.80
2023-02-07T11:14:10.622Z,13.00
2023-02-07T11:15:10.766Z,13.10
2023-02-07T11:16:10.993Z,13.10
2023-02-07T11:17:11.102Z,12.50
2023-02-07T11:18:11.284Z,12.60
2023-02-07T11:19:11.442Z,12.30
2023-02-07T11:20:11.625Z,12.50
2023-02-07T11:21:11.774Z,12.30
2023-02-07T11:22:11.973Z,12.50
2023-02-07T11:23:12.116Z,12.00
2023-02-07T11:24:12.328Z,12.30
2023-02-07T11:25:12.518Z,12.70
2023-02-07T11:26:12.675Z,12.30
2023-02-07T11:27:12.859Z,12.00
2023-02-07T11:28:13.082Z,12.60
2023-02-07T11:29:13.235Z,12.50
2023-02-07T11:30:13.397Z,12.60
2023-02-07T11:31:13.651Z,12.60
2023-02-07T11:32:13.733Z,12.30
2023-02-07T11:33:13.878Z,12.30
2023-02-07T11:34:14.092Z,12.60
2023-02-07T11:35:14.255Z,12.80
2023-02-07T11:36:14.422Z,12.30
2023-02-07T11:37:14.581Z,12.50
2023-02-07T11:38:14.742Z,12.50
2023-02-07T11:39:14.966Z,12.30
2023-02-07T11:40:15.133Z,11.90
2023-02-07T11:41:15.305Z,12.20
2023-02-07T11:42:15.457Z,12.60
2023-02-07T11:43:15.633Z,12.20
2023-02-07T11:44:15.793Z,12.60
2023-02-07T11:45:15.968Z,12.30
2023-02-07T11:46:16.164Z,12.00
2023-02-07T11:47:16.311Z,11.50
2023-02-07T11:48:16.465Z,12.20
2023-02-07T11:49:16.633Z,12.10
2023-02-07T11:50:16.838Z,11.50
2023-02-07T11:51:16.959Z,12.80
2023-02-07T11:52:17.127Z,12.30
2023-02-07T11:53:17.309Z,12.00
2023-02-07T11:54:17.526Z,11.70
2023-02-07T11:55:17.694Z,11.70
2023-02-07T11:56:17.837Z,12.40
2023-02-07T11:57:18.026Z,12.60
2023-02-07T11:58:18.166Z,12.40
2023-02-07T11:59:18.328Z,12.90
2023-02-07T12:00:18.494Z,13.20
2023-02-07T12:01:18.666Z,13.10
2023-02-07T12:02:18.882Z,13.60
2023-02-07T12:03:19.001Z,13.10
2023-02-07T12:04:19.160Z,14.10
2023-02-07T12:05:19.339Z,13.70
2023-02-07T12:06:19.493Z,12.80
2023-02-07T12:07:19.672Z,12.50
2023-02-07T12:08:19.833Z,12.70
2023-02-07T12:09:20.007Z,11.50
2023-02-07T12:10:20.188Z,12.20
2023-02-07T12:11:20.371Z,11.80
2023-02-07T12:12:20.526Z,12.40
2023-02-07T12:13:20.686Z,11.90
2023-02-07T12:14:20.874Z,11.80
2023-02-07T12:15:21.022Z,10.90
2023-02-07T12:16:21.240Z,10.70
2023-02-07T12:17:21.378Z,11.60
2023-02-07T12:18:21.562Z,11.30
2023-02-07T12:19:21.788Z,11.30
2023-02-07T12:20:21.882Z,11.40
2023-02-07T12:21:22.051Z,11.00
2023-02-07T12:22:22.227Z,10.80
2023-02-07T12:23:41.156Z,11.00
2023-02-07T12:24:23.547Z,11.50
2023-02-07T12:25:22.752Z,11.00
2023-02-07T12:26:22.928Z,11.10
2023-02-07T12:27:23.133Z,10.50
2023-02-07T12:28:23.268Z,10.80
2023-02-07T12:29:23.447Z,11.20
2023-02-07T12:30:23.632Z,10.80
2023-02-07T12:31:23.889Z,10.40
2023-02-07T12:32:24.031Z,10.70
2023-02-07T12:33:24.107Z,10.90
2023-02-07T12:34:24.250Z,10.70
2023-02-07T12:35:24.448Z,10.30
2023-02-07T12:36:24.614Z,10.50
2023-02-07T12:37:24.783Z,10.80
2023-02-07T12:38:24.937Z,10.40
2023-02-07T12:39:25.123Z,10.40
2023-02-07T12:40:25.317Z,10.50
2023-02-07T12:41:25.539Z,9.50
2023-02-07T12:42:25.656Z,10.10
2023-02-07T12:43:25.854Z,9.40
2023-02-07T12:44:26.030Z,9.20
2023-02-07T12:45:26.270Z,8.80
2023-02-07T12:46:26.381Z,9.30
2023-02-07T12:47:26.572Z,9.00
2023-02-07T12:48:26.720Z,9.00
2023-02-07T12:49:26.889Z,8.80
2023-02-07T12:50:27.076Z,8.70
2023-02-07T12:51:27.278Z,9.20
2023-02-07T12:52:27.414Z,9.30
2023-02-07T12:53:27.600Z,8.40
2023-02-07T12:54:27.742Z,8.40
2023-02-07T12:55:27.963Z,8.80